createdAt,value
2018-07-31T00:00:20.294Z,25.50
2018-07-31T00:02:24.181Z,25.50
2018-07-31T00:04:27.318Z,25.50
2018-07-31T00:06:31.373Z,25.40
2018-07-31T00:08:34.611Z,25.40
2018-07-31T00:10:37.737Z,25.40
2018-07-31T00:12:40.858Z,25.30
2018-07-31T00:14:43.995Z,25.30
2018-07-31T00:16:47.119Z,25.30
2018-07-31T00:18:50.250Z,25.30
2018-07-31T00:20:53.468Z,25.20
2018-07-31T00:22:56.603Z,25.20
2018-07-31T00:24:59.737Z,25.20
2018-07-31T00:27:02.855Z,25.20
2018-07-31T00:29:06.112Z,25.10
2018-07-31T00:31:09.268Z,25.10
2018-07-31T00:33:12.402Z,25.10
2018-07-31T00:35:15.555Z,25.00
2018-07-31T00:37:18.692Z,25.00
2018-07-31T00:39:21.807Z,25.00
2018-07-31T00:41:24.953Z,25.00
2018-07-31T00:43:28.077Z,24.90
2018-07-31T00:45:31.200Z,24.90
2018-07-31T00:47:34.328Z,24.90
2018-07-31T00:49:37.447Z,24.80
2018-07-31T00:51:40.588Z,24.80
2018-07-31T00:53:43.738Z,24.80
2018-07-31T00:55:46.848Z,24.70
2018-07-31T00:57:49.963Z,24.70
2018-07-31T00:59:53.124Z,24.70
2018-07-31T01:01:56.240Z,24.70
2018-07-31T01:03:59.396Z,24.60
2018-07-31T01:06:02.593Z,24.60
2018-07-31T01:08:05.774Z,24.50
2018-07-31T01:10:08.899Z,24.50
2018-07-31T01:12:12.955Z,24.50
2018-07-31T01:14:16.080Z,24.50
2018-07-31T01:16:19.200Z,24.40
2018-07-31T01:18:22.327Z,24.40
2018-07-31T01:20:25.459Z,24.40
2018-07-31T01:22:28.600Z,24.40
2018-07-31T01:24:31.732Z,24.30
2018-07-31T01:26:34.891Z,24.30
2018-07-31T01:28:38.042Z,24.30
2018-07-31T01:30:41.192Z,24.20
2018-07-31T01:32:44.336Z,24.20
2018-07-31T01:34:47.480Z,24.20
2018-07-31T01:36:50.603Z,24.10
2018-07-31T01:38:53.745Z,24.10
2018-07-31T01:40:56.888Z,24.10
2018-07-31T01:43:00.045Z,24.10
2018-07-31T01:45:03.181Z,24.10
2018-07-31T01:47:06.381Z,24.10
2018-07-31T01:49:10.252Z,24.10
2018-07-31T01:51:13.376Z,24.00
2018-07-31T01:55:19.435Z,23.90
2018-07-31T01:57:22.564Z,23.90
2018-07-31T01:59:25.715Z,23.90
2018-07-31T02:01:28.839Z,23.90
2018-07-31T02:03:31.970Z,23.80
2018-07-31T02:07:38.077Z,23.70
2018-07-31T02:09:41.288Z,23.60
2018-07-31T02:28:07.974Z,23.40
2018-07-31T02:30:16.444Z,23.30
2018-07-31T02:32:19.593Z,23.20
2018-07-31T02:34:22.719Z,23.20
2018-07-31T02:36:25.865Z,23.20
2018-07-31T02:38:29.023Z,23.10
2018-07-31T02:40:32.156Z,23.20
2018-07-31T02:42:35.311Z,23.10
2018-07-31T02:46:41.372Z,23.00
2018-07-31T02:48:44.536Z,23.00
2018-07-31T02:50:47.684Z,23.00
2018-07-31T02:52:50.853Z,22.90
2018-07-31T02:54:53.977Z,22.90
2018-07-31T02:56:57.103Z,22.80
2018-07-31T02:59:00.225Z,22.70
2018-07-31T03:01:03.385Z,22.70
2018-07-31T03:03:06.517Z,22.70
2018-07-31T03:05:11.120Z,22.70
2018-07-31T03:07:14.306Z,22.70
2018-07-31T03:09:17.432Z,22.70
2018-07-31T03:11:20.535Z,22.70
2018-07-31T03:13:23.680Z,22.70
2018-07-31T03:15:26.909Z,22.70
2018-07-31T03:17:30.048Z,22.70
2018-07-31T03:19:33.156Z,22.70
2018-07-31T03:21:36.306Z,22.70
2018-07-31T03:23:39.428Z,22.60
2018-07-31T03:25:42.559Z,22.60
2018-07-31T03:27:45.692Z,22.60
2018-07-31T03:29:48.804Z,22.60
2018-07-31T03:31:51.976Z,22.60
2018-07-31T03:33:55.134Z,22.50
2018-07-31T03:35:58.287Z,22.50
2018-07-31T03:38:01.404Z,22.40
2018-07-31T03:40:04.640Z,22.50
2018-07-31T03:42:07.770Z,22.50
2018-07-31T03:44:10.887Z,22.50
2018-07-31T03:46:14.047Z,22.40
2018-07-31T03:48:17.177Z,22.40
2018-07-31T03:50:20.298Z,22.40
2018-07-31T03:52:23.415Z,22.40
2018-07-31T03:56:29.428Z,22.40
2018-07-31T03:58:32.565Z,22.40
2018-07-31T04:00:35.710Z,22.40
2018-07-31T04:02:38.846Z,22.40
2018-07-31T04:04:42.050Z,22.40
2018-07-31T04:06:45.811Z,22.40
2018-07-31T04:08:48.960Z,22.40
2018-07-31T04:10:52.073Z,22.40
2018-07-31T04:12:55.221Z,22.50
2018-07-31T04:14:58.345Z,22.50
2018-07-31T04:17:01.488Z,22.60
2018-07-31T04:19:04.724Z,22.60
2018-07-31T04:21:08.907Z,22.70
2018-07-31T04:23:12.037Z,22.70
2018-07-31T04:25:15.179Z,22.80
2018-07-31T04:27:18.327Z,22.80
2018-07-31T04:29:21.999Z,22.80
2018-07-31T04:31:25.125Z,22.80
2018-07-31T04:33:28.265Z,22.80
2018-07-31T04:35:31.388Z,22.80
2018-07-31T04:37:34.530Z,22.90
2018-07-31T04:39:37.650Z,22.90
2018-07-31T04:41:40.863Z,23.00
2018-07-31T04:43:44.007Z,23.00
2018-07-31T04:45:47.153Z,23.00
2018-07-31T04:47:50.284Z,23.00
2018-07-31T04:49:53.415Z,23.00
2018-07-31T04:51:56.616Z,23.10
2018-07-31T04:54:00.196Z,23.20
2018-07-31T04:56:03.476Z,23.20
2018-07-31T04:58:06.604Z,23.30
2018-07-31T05:00:09.924Z,23.40
2018-07-31T05:02:13.075Z,23.60
2018-07-31T05:04:16.196Z,24.00
2018-07-31T05:06:19.316Z,24.50
2018-07-31T05:08:22.472Z,24.90
2018-07-31T05:10:25.619Z,25.20
2018-07-31T05:12:28.789Z,25.60
2018-07-31T05:14:31.911Z,26.10
2018-07-31T05:16:35.084Z,26.50
2018-07-31T05:18:38.207Z,27.00
2018-07-31T05:22:44.308Z,28.00
2018-07-31T05:24:47.451Z,28.50
2018-07-31T05:26:50.607Z,28.90
2018-07-31T05:28:53.748Z,29.40
2018-07-31T05:30:56.911Z,29.70
2018-07-31T05:35:03.158Z,30.00
2018-07-31T05:37:06.313Z,30.10
2018-07-31T05:39:10.536Z,30.20
2018-07-31T05:41:13.692Z,30.30
2018-07-31T05:43:16.828Z,30.50
2018-07-31T05:45:20.823Z,30.80
2018-07-31T05:47:23.952Z,31.00
2018-07-31T05:49:27.073Z,31.20
2018-07-31T05:51:30.212Z,31.30
2018-07-31T05:55:36.251Z,31.10
2018-07-31T05:57:39.384Z,31.00
2018-07-31T05:59:42.503Z,31.10
2018-07-31T06:01:45.659Z,31.00
2018-07-31T06:07:54.649Z,31.40
2018-07-31T06:09:57.858Z,31.70
2018-07-31T06:12:01.008Z,32.00
2018-07-31T06:16:07.492Z,32.60
2018-07-31T06:18:10.700Z,32.60
2018-07-31T06:20:15.599Z,32.80
2018-07-31T06:24:21.784Z,33.10
2018-07-31T06:26:24.907Z,33.20
2018-07-31T06:28:28.033Z,33.00
2018-07-31T06:30:31.157Z,33.00
2018-07-31T06:32:34.328Z,33.10
2018-07-31T06:34:37.447Z,33.20
2018-07-31T06:36:40.573Z,33.20
2018-07-31T06:38:43.720Z,33.30
2018-07-31T06:47:39.984Z,33.40
2018-07-31T06:49:43.088Z,33.50
2018-07-31T06:51:46.203Z,33.80
2018-07-31T06:53:49.315Z,34.20
2018-07-31T06:59:58.344Z,34.60
2018-07-31T07:02:01.525Z,34.20
2018-07-31T07:06:07.477Z,32.70
2018-07-31T07:10:13.663Z,32.10
2018-07-31T07:14:19.815Z,31.30
2018-07-31T07:16:22.898Z,31.20
2018-07-31T07:20:28.918Z,30.70
2018-07-31T07:22:32.043Z,30.70
2018-07-31T07:36:52.728Z,31.20
2018-07-31T07:38:55.831Z,31.40
2018-07-31T07:40:58.927Z,31.60
2018-07-31T07:43:02.103Z,31.70
2018-07-31T07:45:05.204Z,31.80
2018-07-31T07:47:08.286Z,31.80
2018-07-31T07:49:11.380Z,32.00
2018-07-31T07:51:14.485Z,32.20
2018-07-31T07:55:20.508Z,32.00
2018-07-31T07:57:23.596Z,32.00
2018-07-31T07:59:26.736Z,32.20
2018-07-31T08:03:32.736Z,32.30
2018-07-31T08:05:35.840Z,32.30
2018-07-31T08:07:38.895Z,32.40
2018-07-31T08:09:42.043Z,32.50
2018-07-31T08:11:45.151Z,32.60
2018-07-31T08:13:48.331Z,32.60
2018-07-31T08:15:51.427Z,32.60
2018-07-31T08:17:54.556Z,32.30
2018-07-31T08:19:57.656Z,32.20
2018-07-31T08:22:00.788Z,32.30
2018-07-31T08:24:03.984Z,32.40
2018-07-31T08:26:07.090Z,32.50
2018-07-31T08:28:10.251Z,32.60
2018-07-31T08:30:13.422Z,32.70
2018-07-31T08:32:16.519Z,32.80
2018-07-31T08:34:19.633Z,32.80
2018-07-31T08:36:22.903Z,32.80
2018-07-31T08:38:25.999Z,32.90
2018-07-31T08:40:29.174Z,32.90
2018-07-31T08:42:32.291Z,33.00
2018-07-31T08:44:35.391Z,33.10
2018-07-31T08:46:39.150Z,33.20
2018-07-31T08:50:45.467Z,33.40
2018-07-31T08:52:48.707Z,33.40
2018-07-31T08:54:51.812Z,33.50
2018-07-31T08:56:54.981Z,33.60
2018-07-31T08:58:58.047Z,33.80
2018-07-31T09:01:01.330Z,34.00
2018-07-31T09:03:04.535Z,34.10
2018-07-31T09:05:07.823Z,34.00
2018-07-31T09:07:10.915Z,34.20
2018-07-31T09:09:14.020Z,34.30
2018-07-31T09:11:17.128Z,34.30
2018-07-31T09:15:23.180Z,34.60
2018-07-31T09:17:26.313Z,34.80
2018-07-31T09:19:29.408Z,35.00
2018-07-31T09:21:32.594Z,35.00
2018-07-31T09:23:35.692Z,35.10
2018-07-31T09:25:44.892Z,35.20
2018-07-31T09:27:47.973Z,35.30
2018-07-31T09:29:51.083Z,35.10
2018-07-31T09:31:54.159Z,35.10
2018-07-31T09:33:57.315Z,35.30
2018-07-31T09:36:00.428Z,35.40
2018-07-31T09:40:06.432Z,36.00
2018-07-31T09:54:29.581Z,36.00
2018-07-31T09:58:35.528Z,35.70
2018-07-31T10:00:44.159Z,35.60
2018-07-31T10:04:50.308Z,35.60
2018-07-31T10:06:53.409Z,35.70
2018-07-31T10:10:59.727Z,36.10
2018-07-31T10:13:02.816Z,36.10
2018-07-31T10:17:09.668Z,36.50
2018-07-31T10:19:12.783Z,36.50
2018-07-31T10:21:15.887Z,36.50
2018-07-31T10:23:19.072Z,36.50
2018-07-31T10:25:22.284Z,36.40
2018-07-31T10:27:25.384Z,36.20
2018-07-31T10:31:31.415Z,36.10
2018-07-31T10:33:34.507Z,36.30
2018-07-31T16:46:41.219Z,33.10
2018-07-31T16:52:50.147Z,32.90
2018-07-31T16:54:53.256Z,32.80
2018-07-31T17:01:02.300Z,33.30
2018-07-31T17:03:05.411Z,32.90
2018-07-31T17:05:08.495Z,32.70
2018-07-31T17:09:14.582Z,32.10
2018-07-31T17:17:26.460Z,31.60
2018-07-31T17:19:29.513Z,31.30
2018-07-31T17:21:32.835Z,31.10
2018-07-31T17:25:38.827Z,30.90
2018-07-31T17:27:41.968Z,30.90
2018-07-31T17:29:45.151Z,30.90
2018-07-31T17:33:51.116Z,30.80
2018-07-31T17:35:54.203Z,30.80
2018-07-31T17:37:57.309Z,30.70
2018-07-31T17:40:00.404Z,30.50
2018-07-31T17:42:03.507Z,30.50
2018-07-31T17:50:15.400Z,30.80
2018-07-31T17:52:18.571Z,30.70
2018-07-31T17:54:21.680Z,30.60
2018-07-31T17:56:24.806Z,30.40
2018-07-31T17:58:27.891Z,30.30
2018-07-31T18:00:30.981Z,30.20
2018-07-31T18:02:34.107Z,30.20
2018-07-31T18:04:37.264Z,30.40
2018-07-31T18:08:43.216Z,31.30
2018-07-31T18:23:03.631Z,31.20
2018-07-31T18:27:09.884Z,32.30
2018-07-31T18:29:12.945Z,32.50
2018-07-31T18:31:15.989Z,32.30
2018-07-31T18:35:22.209Z,33.10
2018-07-31T18:37:26.421Z,33.20
2018-07-31T18:39:29.516Z,33.30
2018-07-31T18:41:32.613Z,33.40
2018-07-31T18:43:35.703Z,33.50
2018-07-31T18:47:41.779Z,31.50
2018-07-31T18:49:44.869Z,30.90
2018-07-31T18:51:47.956Z,30.30
2018-07-31T18:53:51.058Z,29.70
2018-07-31T18:55:54.151Z,29.30
2018-07-31T18:57:57.267Z,29.00
2018-07-31T19:00:00.399Z,28.80
2018-07-31T19:02:03.507Z,28.50
2018-07-31T19:04:06.757Z,28.30
2018-07-31T19:06:09.856Z,28.10
2018-07-31T19:08:12.953Z,27.90
2018-07-31T19:12:18.997Z,27.80
2018-07-31T19:14:22.096Z,27.60
2018-07-31T19:16:25.200Z,27.50
2018-07-31T19:20:31.233Z,27.20
2018-07-31T19:22:34.359Z,27.10
2018-07-31T19:24:37.467Z,27.00
2018-07-31T19:26:40.569Z,27.00
2018-07-31T19:28:43.687Z,27.00
2018-07-31T19:30:46.782Z,27.00
2018-07-31T19:34:52.796Z,27.00
2018-07-31T19:36:56.202Z,26.90
2018-07-31T19:38:59.374Z,26.90
2018-07-31T19:41:02.588Z,26.80
2018-07-31T19:43:05.667Z,26.90
2018-07-31T19:51:17.596Z,26.60
2018-07-31T19:53:20.745Z,26.60
2018-07-31T19:55:23.839Z,26.60
2018-07-31T19:57:26.932Z,26.50
2018-07-31T19:59:30.037Z,26.50
2018-07-31T20:01:33.147Z,26.40
2018-07-31T20:03:36.255Z,26.30
2018-07-31T20:07:42.283Z,26.20
2018-07-31T20:09:45.449Z,26.20
2018-07-31T20:11:48.476Z,26.20
2018-07-31T20:17:57.484Z,26.00
2018-07-31T20:20:00.706Z,25.90
2018-07-31T20:24:06.952Z,25.80
2018-07-31T20:26:10.860Z,25.80
2018-07-31T20:28:13.937Z,25.70
2018-07-31T20:30:17.044Z,25.60
2018-07-31T20:32:20.123Z,25.60
2018-07-31T20:34:23.285Z,25.50
2018-07-31T20:36:26.364Z,25.40
2018-07-31T20:38:29.987Z,25.40
2018-07-31T20:40:33.104Z,25.30
2018-07-31T20:44:39.116Z,25.30
2018-07-31T20:46:42.203Z,25.20
2018-07-31T20:48:45.275Z,25.10
2018-07-31T20:50:48.360Z,25.00
2018-07-31T20:52:51.604Z,24.90
2018-07-31T20:54:55.038Z,24.80
2018-07-31T20:56:58.167Z,24.80
2018-07-31T20:59:01.244Z,24.80
2018-07-31T21:01:04.356Z,24.70
2018-07-31T21:03:07.432Z,24.80
2018-07-31T21:05:10.524Z,24.80
2018-07-31T21:07:13.608Z,24.70
2018-07-31T21:09:20.128Z,24.70
2018-07-31T21:11:23.211Z,24.60
2018-07-31T21:13:26.296Z,24.50
2018-07-31T21:15:29.382Z,24.50
2018-07-31T21:17:32.503Z,24.40
2018-07-31T21:19:35.604Z,24.40
2018-07-31T21:21:38.695Z,24.30
2018-07-31T21:23:41.781Z,24.30
2018-07-31T21:25:44.900Z,24.30
2018-07-31T21:27:48.011Z,24.40
2018-07-31T21:29:51.123Z,24.30
2018-07-31T21:31:54.207Z,24.20
2018-07-31T21:33:57.308Z,24.20
2018-07-31T21:36:00.413Z,24.20
2018-07-31T21:38:03.651Z,24.10
2018-07-31T21:40:06.773Z,24.20
2018-07-31T21:42:09.867Z,24.10
2018-07-31T21:44:13.059Z,24.10
2018-07-31T21:46:16.162Z,24.00
2018-07-31T21:48:19.257Z,24.00
2018-07-31T21:50:22.347Z,24.00
2018-07-31T21:52:25.452Z,23.90
2018-07-31T21:54:28.552Z,23.90
2018-07-31T21:56:31.715Z,23.80
2018-07-31T21:58:34.959Z,23.80
2018-07-31T22:00:44.409Z,23.80
2018-07-31T22:02:47.495Z,23.70
2018-07-31T22:04:50.655Z,23.70
2018-07-31T22:06:53.764Z,23.60
2018-07-31T22:08:56.876Z,23.60
2018-07-31T22:10:59.980Z,23.60
2018-07-31T22:13:03.080Z,23.60
2018-07-31T22:15:06.159Z,23.50
2018-07-31T22:17:09.504Z,23.50
2018-07-31T22:19:12.596Z,23.50
2018-07-31T22:21:15.735Z,23.40
2018-07-31T22:23:19.070Z,23.40
2018-07-31T22:25:22.190Z,23.30
2018-07-31T22:27:25.323Z,23.40
2018-07-31T22:29:28.423Z,23.30
2018-07-31T22:31:31.523Z,23.30
2018-07-31T22:33:34.639Z,23.30
2018-07-31T22:37:40.613Z,23.20
2018-07-31T22:39:43.720Z,23.20
2018-07-31T22:41:46.916Z,23.20
2018-07-31T22:43:50.024Z,23.10
2018-07-31T22:45:53.164Z,23.10
2018-07-31T22:47:56.351Z,23.10
2018-07-31T22:49:59.451Z,23.10
2018-07-31T22:52:02.604Z,23.00
2018-07-31T22:54:05.700Z,23.00
2018-07-31T22:56:08.817Z,23.00
2018-07-31T22:58:11.929Z,23.00
2018-07-31T23:00:15.056Z,22.90
2018-07-31T23:02:18.142Z,22.80
2018-07-31T23:04:21.245Z,22.80
2018-07-31T23:06:24.437Z,22.80
2018-07-31T23:08:27.532Z,22.80
2018-07-31T23:10:30.631Z,22.70
2018-07-31T23:12:34.113Z,22.70
2018-07-31T23:14:37.215Z,22.70
2018-07-31T23:16:40.335Z,22.70
2018-07-31T23:18:43.435Z,22.70
2018-07-31T23:20:46.538Z,22.60
2018-07-31T23:22:51.376Z,22.60
2018-07-31T23:24:54.859Z,22.50
2018-07-31T23:26:57.958Z,22.50
2018-07-31T23:29:01.061Z,22.40
2018-07-31T23:31:04.164Z,22.40
2018-07-31T23:33:07.268Z,22.40
2018-07-31T23:35:10.483Z,22.40
2018-07-31T23:37:13.596Z,22.40
2018-07-31T23:39:16.672Z,22.40
2018-07-31T23:41:19.776Z,22.30
2018-07-31T23:43:22.859Z,22.30
2018-07-31T23:45:25.940Z,22.30
2018-07-31T23:47:29.935Z,22.30
2018-07-31T23:49:33.016Z,22.20
2018-07-31T23:51:36.111Z,22.20
2018-07-31T23:53:39.196Z,22.10
2018-07-31T23:55:42.273Z,22.10
2018-07-31T23:57:45.367Z,22.10
2018-07-31T23:59:48.637Z,22.10
